createdAt,value
2024-01-29T00:00:21.396Z,102644.34
2024-01-29T00:02:48.245Z,102632.59
2024-01-29T00:05:14.879Z,102630.88
2024-01-29T00:07:41.502Z,102634.28
2024-01-29T00:10:08.866Z,102643.59
2024-01-29T00:12:35.877Z,102626.44
2024-01-29T00:15:02.916Z,102622.00
2024-01-29T00:17:29.644Z,102617.81
2024-01-29T00:19:56.569Z,102637.44
2024-01-29T00:22:23.446Z,102628.63
2024-01-29T00:24:50.122Z,102631.19
2024-01-29T00:27:16.789Z,102625.91
2024-01-29T00:29:43.369Z,102625.97
2024-01-29T00:32:09.984Z,102619.53
2024-01-29T00:34:36.675Z,102627.00
2024-01-29T00:37:04.798Z,102630.59
2024-01-29T00:39:31.542Z,102628.88
2024-01-29T00:41:58.300Z,102622.66
2024-01-29T00:44:24.990Z,102607.41
2024-01-29T00:46:51.654Z,102623.41
2024-01-29T00:49:18.399Z,102606.63
2024-01-29T00:51:45.138Z,102609.28
2024-01-29T00:54:11.710Z,102630.88
2024-01-29T00:56:38.317Z,102629.44
2024-01-29T00:59:04.960Z,102639.84
2024-01-29T01:01:31.750Z,102643.44
2024-01-29T01:03:58.612Z,102659.72
2024-01-29T01:06:25.904Z,102654.81
2024-01-29T01:08:53.072Z,102657.38
2024-01-29T01:11:19.763Z,102658.31
2024-01-29T01:13:46.385Z,102660.09
2024-01-29T01:16:13.054Z,102664.47
2024-01-29T01:18:39.827Z,102651.72
2024-01-29T01:21:06.453Z,102662.84
2024-01-29T01:23:33.045Z,102663.69
2024-01-29T01:25:59.641Z,102657.53
2024-01-29T01:28:26.254Z,102657.78
2024-01-29T01:30:52.910Z,102650.88
2024-01-29T01:33:19.567Z,102660.28
2024-01-29T01:35:46.178Z,102668.13
2024-01-29T01:38:12.819Z,102657.69
2024-01-29T01:40:39.440Z,102646.69
2024-01-29T01:43:17.720Z,102654.41
2024-01-29T01:45:44.450Z,102662.31
2024-01-29T01:48:12.369Z,102676.00
2024-01-29T01:50:39.227Z,102651.97
2024-01-29T01:53:05.953Z,102673.59
2024-01-29T01:55:33.544Z,102678.72
2024-01-29T01:58:01.031Z,102677.00
2024-01-29T02:00:28.014Z,102671.13
2024-01-29T02:02:55.593Z,102668.50
2024-01-29T02:05:22.417Z,102660.94
2024-01-29T02:07:49.176Z,102673.59
2024-01-29T02:10:16.092Z,102683.25
2024-01-29T02:12:42.724Z,102679.81
2024-01-29T02:15:10.049Z,102676.41
2024-01-29T02:17:36.780Z,102672.06
2024-01-29T02:20:05.359Z,102675.56
2024-01-29T02:22:32.018Z,102673.81
2024-01-29T02:24:58.733Z,102682.47
2024-01-29T02:27:25.397Z,102681.75
2024-01-29T02:29:52.160Z,102674.09
2024-01-29T02:32:18.743Z,102679.22
2024-01-29T02:34:45.348Z,102672.31
2024-01-29T02:37:11.941Z,102680.03
2024-01-29T02:39:38.595Z,102658.81
2024-01-29T02:42:05.485Z,102671.53
2024-01-29T02:44:32.280Z,102674.00
2024-01-29T02:46:59.517Z,102669.13
2024-01-29T02:49:26.846Z,102672.38
2024-01-29T02:51:55.663Z,102678.69
2024-01-29T02:54:22.388Z,102674.59
2024-01-29T02:56:49.066Z,102671.84
2024-01-29T02:59:15.704Z,102689.03
2024-01-29T03:01:42.373Z,102680.56
2024-01-29T03:04:09.094Z,102684.31
2024-01-29T03:06:35.795Z,102697.06
2024-01-29T03:09:02.464Z,102701.66
2024-01-29T03:11:29.070Z,102703.47
2024-01-29T03:13:55.915Z,102693.91
2024-01-29T03:16:22.490Z,102699.53
2024-01-29T03:18:49.268Z,102702.44
2024-01-29T03:21:17.960Z,102700.81
2024-01-29T03:23:44.643Z,102704.47
2024-01-29T03:26:11.299Z,102695.75
2024-01-29T03:28:37.894Z,102701.75
2024-01-29T03:31:05.192Z,102686.56
2024-01-29T03:33:31.881Z,102690.75
2024-01-29T03:35:58.870Z,102699.09
2024-01-29T03:38:25.471Z,102702.03
2024-01-29T03:40:52.128Z,102683.75
2024-01-29T03:43:20.464Z,102685.69
2024-01-29T03:45:48.238Z,102685.28
2024-01-29T03:48:14.834Z,102694.09
2024-01-29T03:50:41.445Z,102662.91
2024-01-29T03:53:08.034Z,102678.53
2024-01-29T03:55:34.685Z,102686.03
2024-01-29T03:58:01.500Z,102676.50
2024-01-29T04:00:28.428Z,102675.63
2024-01-29T04:02:57.978Z,102669.50
2024-01-29T04:05:24.696Z,102658.28
2024-01-29T04:07:51.386Z,102663.59
2024-01-29T04:10:21.191Z,102643.78
2024-01-29T04:12:48.354Z,102670.75
2024-01-29T04:15:15.702Z,102676.56
2024-01-29T04:17:42.427Z,102674.09
2024-01-29T04:20:09.594Z,102665.22
2024-01-29T04:22:36.503Z,102659.59
2024-01-29T04:25:08.161Z,102661.47
2024-01-29T04:27:35.095Z,102670.59
2024-01-29T04:30:03.790Z,102652.75
2024-01-29T04:32:30.482Z,102681.09
2024-01-29T04:34:57.184Z,102677.59
2024-01-29T04:37:25.486Z,102674.16
2024-01-29T04:39:52.173Z,102681.25
2024-01-29T04:42:19.245Z,102665.81
2024-01-29T04:44:45.868Z,102681.19
2024-01-29T04:47:12.633Z,102668.47
2024-01-29T04:49:40.164Z,102682.19
2024-01-29T04:52:07.225Z,102682.19
2024-01-29T04:54:33.937Z,102670.19
2024-01-29T04:57:00.566Z,102680.56
2024-01-29T04:59:27.204Z,102661.47
2024-01-29T05:01:53.980Z,102680.66
2024-01-29T05:04:20.722Z,102680.41
2024-01-29T05:06:47.363Z,102659.66
2024-01-29T05:09:14.756Z,102646.75
2024-01-29T05:11:41.386Z,102672.63
2024-01-29T05:14:08.367Z,102672.63
2024-01-29T05:16:36.458Z,102678.00
2024-01-29T05:19:03.204Z,102677.06
2024-01-29T05:21:29.909Z,102669.31
2024-01-29T05:23:56.816Z,102666.31
2024-01-29T05:26:24.996Z,102660.94
2024-01-29T05:28:51.708Z,102668.78
2024-01-29T05:31:18.385Z,102671.88
2024-01-29T05:33:45.057Z,102677.19
2024-01-29T05:36:11.792Z,102680.75
2024-01-29T05:38:41.262Z,102670.34
2024-01-29T05:41:07.869Z,102658.56
2024-01-29T05:43:34.551Z,102658.72
2024-01-29T05:46:01.257Z,102689.72
2024-01-29T05:48:28.030Z,102675.09
2024-01-29T05:50:56.432Z,102695.94
2024-01-29T05:53:24.101Z,102687.31
2024-01-29T05:55:50.746Z,102693.22
2024-01-29T05:58:17.483Z,102674.75
2024-01-29T06:00:44.260Z,102684.25
2024-01-29T06:03:11.393Z,102698.84
2024-01-29T06:05:38.072Z,102696.28
2024-01-29T06:08:05.232Z,102699.53
2024-01-29T06:10:31.908Z,102704.97
2024-01-29T06:12:58.553Z,102676.19
2024-01-29T06:15:25.277Z,102710.28
2024-01-29T06:17:52.117Z,102718.91
2024-01-29T06:20:19.782Z,102706.78
2024-01-29T06:22:47.590Z,102701.84
2024-01-29T06:25:14.718Z,102712.06
2024-01-29T06:27:42.168Z,102722.72
2024-01-29T06:30:09.451Z,102704.78
2024-01-29T06:32:36.090Z,102727.09
2024-01-29T06:35:04.432Z,102708.22
2024-01-29T06:37:31.236Z,102716.78
2024-01-29T06:39:57.895Z,102714.38
2024-01-29T06:42:25.572Z,102716.16
2024-01-29T06:44:53.623Z,102719.66
2024-01-29T06:47:20.951Z,102727.53
2024-01-29T06:49:47.567Z,102724.00
2024-01-29T06:52:17.884Z,102710.25
2024-01-29T06:54:45.947Z,102717.94
2024-01-29T06:57:14.506Z,102713.59
2024-01-29T06:59:41.281Z,102678.66
2024-01-29T07:02:08.916Z,102676.78
2024-01-29T07:04:36.001Z,102687.44
2024-01-29T07:07:06.461Z,102683.31
2024-01-29T07:09:33.431Z,102706.75
2024-01-29T07:12:00.738Z,102749.63
2024-01-29T07:14:27.535Z,102739.88
2024-01-29T07:16:54.188Z,102721.09
2024-01-29T07:19:27.109Z,102739.19
2024-01-29T07:21:54.614Z,102742.63
2024-01-29T07:24:21.560Z,102747.13
2024-01-29T07:26:48.114Z,102741.22
2024-01-29T07:29:14.894Z,102702.47
2024-01-29T07:31:41.630Z,102730.81
2024-01-29T07:34:08.530Z,102753.19
2024-01-29T07:36:39.031Z,102710.47
2024-01-29T07:39:05.729Z,102740.78
2024-01-29T07:41:32.798Z,102764.72
2024-01-29T07:43:59.489Z,102755.50
2024-01-29T07:46:26.117Z,102755.50
2024-01-29T07:48:52.827Z,102766.59
2024-01-29T07:51:19.589Z,102759.91
2024-01-29T07:53:46.175Z,102784.16
2024-01-29T07:56:12.970Z,102781.75
2024-01-29T07:58:39.819Z,102778.25
2024-01-29T08:01:07.144Z,102779.88
2024-01-29T08:03:33.985Z,102759.06
2024-01-29T08:06:00.726Z,102746.94
2024-01-29T08:08:27.345Z,102754.78
2024-01-29T08:10:54.029Z,102780.28
2024-01-29T08:13:20.633Z,102787.25
2024-01-29T08:15:47.306Z,102783.53
2024-01-29T08:18:14.053Z,102775.16
2024-01-29T08:20:40.911Z,102783.88
2024-01-29T08:23:07.580Z,102775.06
2024-01-29T08:25:34.237Z,102788.66
2024-01-29T08:28:00.936Z,102775.41
2024-01-29T08:30:27.877Z,102777.28
2024-01-29T08:32:54.568Z,102786.63
2024-01-29T08:35:21.254Z,102765.25
2024-01-29T08:37:47.918Z,102772.16
2024-01-29T08:40:14.668Z,102774.41
2024-01-29T08:42:41.282Z,102784.66
2024-01-29T08:45:09.160Z,102771.06
2024-01-29T08:47:35.743Z,102794.75
2024-01-29T08:50:02.567Z,102790.31
2024-01-29T08:52:29.294Z,102783.91
2024-01-29T08:54:55.996Z,102746.06
2024-01-29T08:57:22.784Z,102790.13
2024-01-29T08:59:49.402Z,102802.41
2024-01-29T09:02:16.130Z,102784.03
2024-01-29T09:04:42.934Z,102795.09
2024-01-29T09:07:09.754Z,102791.50
2024-01-29T09:09:36.833Z,102775.78
2024-01-29T09:12:03.804Z,102780.72
2024-01-29T09:14:30.482Z,102778.25
2024-01-29T09:16:57.126Z,102778.75
2024-01-29T09:19:25.105Z,102794.81
2024-01-29T09:21:52.232Z,102803.09
2024-01-29T09:24:19.113Z,102778.50
2024-01-29T09:26:45.823Z,102777.03
2024-01-29T09:29:12.469Z,102797.09
2024-01-29T09:31:42.629Z,102788.28
2024-01-29T09:34:09.556Z,102791.53
2024-01-29T09:36:36.785Z,102780.91
2024-01-29T09:39:03.526Z,102794.91
2024-01-29T09:41:35.457Z,102801.84
2024-01-29T09:44:07.666Z,102795.22
2024-01-29T09:46:40.087Z,102787.03
2024-01-29T09:49:10.370Z,102783.25
2024-01-29T09:51:37.355Z,102779.22
2024-01-29T09:54:07.064Z,102778.06
2024-01-29T09:56:33.897Z,102803.50
2024-01-29T09:59:00.651Z,102784.72
2024-01-29T10:01:27.588Z,102800.38
2024-01-29T10:03:54.409Z,102784.34
2024-01-29T10:06:21.175Z,102794.00
2024-01-29T10:08:48.299Z,102778.44
2024-01-29T10:11:15.196Z,102794.28
2024-01-29T10:13:42.478Z,102790.47
2024-01-29T10:16:09.472Z,102747.06
2024-01-29T10:18:36.783Z,102801.47
2024-01-29T10:21:07.411Z,102827.09
2024-01-29T10:23:34.138Z,102795.66
2024-01-29T10:26:01.740Z,102817.56
2024-01-29T10:28:28.902Z,102809.72
2024-01-29T10:30:56.846Z,102803.56
2024-01-29T10:33:25.320Z,102816.25
2024-01-29T10:35:52.184Z,102807.59
2024-01-29T10:38:22.112Z,102818.38
2024-01-29T10:40:49.249Z,102806.47
2024-01-29T10:43:20.845Z,102797.81
2024-01-29T10:45:51.974Z,102816.03
2024-01-29T10:48:23.709Z,102804.28
2024-01-29T10:50:52.305Z,102822.09
2024-01-29T10:53:23.528Z,102818.59
2024-01-29T10:55:52.250Z,102806.75
2024-01-29T10:58:19.364Z,102820.69
2024-01-29T11:00:46.674Z,102816.31
2024-01-29T11:03:14.035Z,102821.66
2024-01-29T11:05:43.327Z,102810.84
2024-01-29T11:08:18.463Z,102827.34
2024-01-29T11:10:45.170Z,102816.56
2024-01-29T11:13:14.187Z,102822.44
2024-01-29T11:15:42.815Z,102819.78
2024-01-29T11:18:11.767Z,102825.28
2024-01-29T11:20:41.321Z,102829.56
2024-01-29T11:23:19.195Z,102830.59
2024-01-29T11:25:52.343Z,102818.06
2024-01-29T11:28:19.692Z,102828.41
2024-01-29T11:30:56.075Z,102831.34
2024-01-29T11:33:23.917Z,102835.81
2024-01-29T11:35:54.401Z,102824.84
2024-01-29T11:38:24.628Z,102820.47
2024-01-29T11:40:51.265Z,102806.78
2024-01-29T11:43:19.938Z,102813.19
2024-01-29T11:45:54.648Z,102818.94
2024-01-29T11:48:23.301Z,102817.63
2024-01-29T11:50:52.671Z,102811.75
2024-01-29T11:53:27.621Z,102822.94
2024-01-29T11:55:55.473Z,102798.09
2024-01-29T11:58:23.822Z,102817.06
2024-01-29T12:00:52.333Z,102812.88
2024-01-29T12:03:22.185Z,102827.00
2024-01-29T12:05:48.910Z,102825.38
2024-01-29T12:08:28.754Z,102811.56
2024-01-29T12:11:04.213Z,102798.66
2024-01-29T12:13:31.470Z,102806.53
2024-01-29T12:16:01.114Z,102816.03
2024-01-29T12:18:32.701Z,102809.94
2024-01-29T12:20:59.544Z,102799.91
2024-01-29T12:23:26.788Z,102821.44
2024-01-29T12:25:55.609Z,102820.66
2024-01-29T12:28:24.852Z,102793.44
2024-01-29T12:31:07.074Z,102810.44
2024-01-29T12:33:36.260Z,102816.47
2024-01-29T12:36:17.320Z,102815.75
2024-01-29T12:38:56.058Z,102812.97
2024-01-29T12:41:23.223Z,102817.47
2024-01-29T12:43:52.054Z,102813.09
2024-01-29T12:46:19.353Z,102801.72
2024-01-29T12:48:46.346Z,102778.75
2024-01-29T12:51:14.512Z,102789.66
2024-01-29T12:53:57.147Z,102801.78
2024-01-29T12:56:27.586Z,102799.31
2024-01-29T12:58:54.205Z,102778.75
2024-01-29T13:01:20.895Z,102785.69
2024-01-29T13:03:47.693Z,102801.13
2024-01-29T13:06:14.382Z,102803.78
2024-01-29T13:08:41.244Z,102769.66
2024-01-29T13:11:07.889Z,102806.53
2024-01-29T13:13:34.606Z,102793.56
2024-01-29T13:16:01.459Z,102802.06
2024-01-29T13:18:28.371Z,102777.31
2024-01-29T13:20:55.112Z,102781.41
2024-01-29T13:23:21.784Z,102796.22
2024-01-29T13:25:49.517Z,102779.03
2024-01-29T13:28:16.401Z,102784.16
2024-01-29T13:30:44.377Z,102761.59
2024-01-29T13:33:11.943Z,102769.44
2024-01-29T13:35:38.610Z,102797.78
2024-01-29T13:38:05.481Z,102790.91
2024-01-29T13:40:32.073Z,102781.41
2024-01-29T13:42:58.820Z,102773.53
2024-01-29T13:45:26.155Z,102781.97
2024-01-29T13:47:54.215Z,102768.59
2024-01-29T13:50:21.262Z,102781.31
2024-01-29T13:52:48.316Z,102789.94
2024-01-29T13:55:15.370Z,102786.72
2024-01-29T13:57:42.201Z,102793.56
2024-01-29T14:00:11.375Z,102776.56
2024-01-29T14:02:38.018Z,102794.59
2024-01-29T14:05:06.250Z,102785.94
2024-01-29T14:07:35.917Z,102791.84
2024-01-29T14:10:03.864Z,102785.78
2024-01-29T14:12:30.708Z,102779.78
2024-01-29T14:14:58.043Z,102778.75
2024-01-29T14:17:25.285Z,102779.78
2024-01-29T14:19:55.526Z,102768.81
2024-01-29T14:22:25.091Z,102772.22
2024-01-29T14:24:52.211Z,102785.94
2024-01-29T14:27:19.111Z,102782.44
2024-01-29T14:29:45.816Z,102780.19
2024-01-29T14:32:14.917Z,102776.47
2024-01-29T14:34:42.200Z,102753.25
2024-01-29T14:37:09.300Z,102775.59
2024-01-29T14:39:36.909Z,102786.91
2024-01-29T14:42:03.864Z,102798.38
2024-01-29T14:44:32.386Z,102791.44
2024-01-29T14:47:01.203Z,102806.44
2024-01-29T14:49:27.910Z,102807.19
2024-01-29T14:51:54.702Z,102786.13
2024-01-29T14:54:25.002Z,102805.00
2024-01-29T14:56:51.711Z,102813.63
2024-01-29T14:59:19.457Z,102821.41
2024-01-29T15:01:46.277Z,102824.25
2024-01-29T15:04:13.496Z,102820.81
2024-01-29T15:06:40.814Z,102812.75
2024-01-29T15:09:08.919Z,102827.19
2024-01-29T15:11:35.889Z,102841.88
2024-01-29T15:14:02.750Z,102831.66
2024-01-29T15:16:30.302Z,102829.94
2024-01-29T15:18:57.135Z,102815.31
2024-01-29T15:21:24.218Z,102843.75
2024-01-29T15:23:50.908Z,102843.03
2024-01-29T15:26:17.848Z,102835.16
2024-01-29T15:28:46.383Z,102850.00
2024-01-29T15:31:14.937Z,102837.72
2024-01-29T15:33:45.722Z,102841.22
2024-01-29T15:36:13.856Z,102836.19
2024-01-29T15:38:40.484Z,102840.72
2024-01-29T15:41:15.839Z,102848.50
2024-01-29T15:43:42.428Z,102846.97
2024-01-29T15:46:10.955Z,102857.25
2024-01-29T15:48:38.645Z,102854.69
2024-01-29T15:51:06.332Z,102845.25
2024-01-29T15:53:33.019Z,102861.00
2024-01-29T15:55:59.709Z,102825.81
2024-01-29T15:58:26.454Z,102815.88
2024-01-29T16:00:53.317Z,102859.31
2024-01-29T16:03:20.082Z,102829.22
2024-01-29T16:05:47.572Z,102852.66
2024-01-29T16:08:15.373Z,102847.53
2024-01-29T16:10:42.574Z,102866.50
2024-01-29T16:13:09.313Z,102859.94
2024-01-29T16:15:36.256Z,102856.44
2024-01-29T16:18:05.335Z,102870.09
2024-01-29T16:20:31.977Z,102869.44
2024-01-29T16:22:58.638Z,102878.13
2024-01-29T16:25:25.370Z,102858.50
2024-01-29T16:27:52.055Z,102849.69
2024-01-29T16:30:18.756Z,102852.34
2024-01-29T16:32:46.426Z,102861.16
2024-01-29T16:35:17.762Z,102875.94
2024-01-29T16:37:44.514Z,102883.53
2024-01-29T16:40:11.604Z,102887.03
2024-01-29T16:42:38.411Z,102877.50
2024-01-29T16:45:06.141Z,102875.56
2024-01-29T16:47:32.950Z,102884.09
2024-01-29T16:50:00.050Z,102868.47
2024-01-29T16:52:27.169Z,102868.53
2024-01-29T16:54:54.029Z,102876.41
2024-01-29T16:57:20.992Z,102886.47
2024-01-29T16:59:47.617Z,102883.06
2024-01-29T17:02:19.013Z,102879.72
2024-01-29T17:04:46.357Z,102881.25
2024-01-29T17:07:16.231Z,102863.16
2024-01-29T17:09:44.695Z,102877.06
2024-01-29T17:12:11.593Z,102879.72
2024-01-29T17:14:38.188Z,102874.59
2024-01-29T17:17:05.402Z,102879.63
2024-01-29T17:19:32.173Z,102851.47
2024-01-29T17:21:58.970Z,102859.28
2024-01-29T17:24:28.598Z,102870.41
2024-01-29T17:26:55.919Z,102865.25
2024-01-29T17:29:23.115Z,102876.50
2024-01-29T17:31:49.835Z,102879.16
2024-01-29T17:34:16.884Z,102863.47
2024-01-29T17:36:43.715Z,102854.81
2024-01-29T17:39:10.540Z,102864.41
2024-01-29T17:41:40.220Z,102862.53
2024-01-29T17:44:06.868Z,102862.59
2024-01-29T17:46:33.459Z,102855.69
2024-01-29T17:49:02.617Z,102868.00
2024-01-29T17:51:29.299Z,102868.16
2024-01-29T17:53:56.771Z,102873.22
2024-01-29T17:56:24.789Z,102856.91
2024-01-29T17:58:51.455Z,102861.84
2024-01-29T18:01:18.219Z,102871.41
2024-01-29T18:03:44.884Z,102862.22
2024-01-29T18:06:11.596Z,102864.00
2024-01-29T18:08:38.255Z,102864.00
2024-01-29T18:11:05.198Z,102861.34
2024-01-29T18:13:31.851Z,102852.81
2024-01-29T18:15:59.621Z,102885.88
2024-01-29T18:18:26.717Z,102864.09
2024-01-29T18:20:53.529Z,102866.47
2024-01-29T18:23:20.211Z,102864.09
2024-01-29T18:25:46.807Z,102825.63
2024-01-29T18:28:13.469Z,102852.97
2024-01-29T18:30:40.240Z,102840.84
2024-01-29T18:33:08.491Z,102843.38
2024-01-29T18:35:35.810Z,102851.16
2024-01-29T18:38:02.667Z,102812.03
2024-01-29T18:40:33.740Z,102861.53
2024-01-29T18:43:00.533Z,102852.63
2024-01-29T18:45:27.103Z,102858.69
2024-01-29T18:47:53.755Z,102858.63
2024-01-29T18:50:20.410Z,102854.25
2024-01-29T18:52:47.009Z,102867.31
2024-01-29T18:55:13.732Z,102870.91
2024-01-29T18:57:40.512Z,102868.47
2024-01-29T19:00:07.864Z,102869.22
2024-01-29T19:02:34.538Z,102864.09
2024-01-29T19:05:02.163Z,102849.38
2024-01-29T19:07:28.958Z,102870.25
2024-01-29T19:09:55.640Z,102864.88
2024-01-29T19:12:22.360Z,102860.66
2024-01-29T19:14:48.971Z,102876.22
2024-01-29T19:17:17.001Z,102801.72
2024-01-29T19:19:44.950Z,102860.50
2024-01-29T19:22:12.450Z,102863.06
2024-01-29T19:24:39.328Z,102857.75
2024-01-29T19:27:08.402Z,102828.97
2024-01-29T19:29:35.716Z,102772.38
2024-01-29T19:32:02.400Z,102854.06
2024-01-29T19:34:29.578Z,102820.84
2024-01-29T19:36:56.462Z,102785.81
2024-01-29T19:39:23.177Z,102855.09
2024-01-29T19:41:49.845Z,102833.84
2024-01-29T19:44:16.587Z,102790.59
2024-01-29T19:46:45.970Z,102810.06
2024-01-29T19:49:16.301Z,102802.53
2024-01-29T19:51:43.056Z,102806.47
2024-01-29T19:54:09.748Z,102824.22
2024-01-29T19:56:36.397Z,102834.75
2024-01-29T19:59:03.209Z,102835.78
2024-01-29T20:01:32.204Z,102814.81
2024-01-29T20:03:58.886Z,102826.78
2024-01-29T20:06:25.597Z,102824.47
2024-01-29T20:08:52.225Z,102804.47
2024-01-29T20:11:18.841Z,102816.00
2024-01-29T20:13:45.639Z,102836.72
2024-01-29T20:16:12.400Z,102837.47
2024-01-29T20:18:40.626Z,102834.91
2024-01-29T20:21:13.830Z,102831.31
2024-01-29T20:23:42.550Z,102828.59
2024-01-29T20:26:09.279Z,102804.06
2024-01-29T20:28:38.565Z,102782.63
2024-01-29T20:31:06.206Z,102828.06
2024-01-29T20:33:36.614Z,102836.72
2024-01-29T20:36:03.608Z,102821.91
2024-01-29T20:38:30.374Z,102802.00
2024-01-29T20:40:57.023Z,102810.91
2024-01-29T20:43:24.103Z,102824.56
2024-01-29T20:45:50.975Z,102817.56
2024-01-29T20:48:17.692Z,102819.19
2024-01-29T20:50:44.381Z,102824.41
2024-01-29T20:53:11.129Z,102800.38
2024-01-29T20:55:38.061Z,102827.31
2024-01-29T20:58:05.753Z,102829.88
2024-01-29T21:00:32.467Z,102824.47
2024-01-29T21:02:59.131Z,102818.56
2024-01-29T21:05:25.825Z,102813.47
2024-01-29T21:07:54.212Z,102789.19
2024-01-29T21:10:21.635Z,102811.38
2024-01-29T21:12:48.496Z,102798.41
2024-01-29T21:15:16.010Z,102809.75
2024-01-29T21:17:43.082Z,102794.41
2024-01-29T21:20:12.982Z,102810.63
2024-01-29T21:22:39.648Z,102808.44
2024-01-29T21:25:10.917Z,102812.72
2024-01-29T21:27:38.369Z,102818.50
2024-01-29T21:30:06.867Z,102802.44
2024-01-29T21:32:33.488Z,102821.06
2024-01-29T21:35:01.732Z,102822.00
2024-01-29T21:37:29.336Z,102814.91
2024-01-29T21:39:56.497Z,102804.75
2024-01-29T21:42:23.777Z,102808.81
2024-01-29T21:44:50.733Z,102811.38
2024-01-29T21:47:17.419Z,102801.25
2024-01-29T21:49:44.144Z,102811.38
2024-01-29T21:52:10.814Z,102798.41
2024-01-29T21:54:37.785Z,102784.56
2024-01-29T21:57:05.724Z,102804.38
2024-01-29T21:59:36.900Z,102802.66
2024-01-29T22:02:05.015Z,102745.38
2024-01-29T22:04:32.123Z,102804.38
2024-01-29T22:06:58.947Z,102797.06
2024-01-29T22:09:25.645Z,102790.63
2024-01-29T22:11:53.053Z,102801.06
2024-01-29T22:14:19.858Z,102808.06
2024-01-29T22:16:46.498Z,102782.25
2024-01-29T22:19:13.477Z,102814.34
2024-01-29T22:21:52.394Z,102797.75
2024-01-29T22:24:19.656Z,102813.47
2024-01-29T22:26:46.260Z,102811.00
2024-01-29T22:29:16.080Z,102810.72
2024-01-29T22:31:42.701Z,102805.69
2024-01-29T22:34:13.393Z,102808.91
2024-01-29T22:36:40.575Z,102808.25
2024-01-29T22:39:12.086Z,102808.19
2024-01-29T22:41:38.804Z,102808.25
2024-01-29T22:44:07.555Z,102798.06
2024-01-29T22:46:39.064Z,102803.03
2024-01-29T22:49:06.092Z,102790.13
2024-01-29T22:51:32.747Z,102803.91
2024-01-29T22:53:59.362Z,102806.81
2024-01-29T22:56:26.232Z,102804.84
2024-01-29T22:58:52.833Z,102794.66
2024-01-29T23:01:21.572Z,102764.78
2024-01-29T23:03:49.088Z,102789.47
2024-01-29T23:06:15.972Z,102798.84
2024-01-29T23:08:42.692Z,102779.28
2024-01-29T23:11:12.163Z,102800.38
2024-01-29T23:13:38.754Z,102763.84
2024-01-29T23:16:06.351Z,102790.91
2024-01-29T23:18:32.992Z,102794.56
2024-01-29T23:20:59.577Z,102732.06
2024-01-29T23:23:26.628Z,102795.44
2024-01-29T23:25:53.194Z,102806.72
2024-01-29T23:28:20.019Z,102782.72
2024-01-29T23:30:46.730Z,102812.88
2024-01-29T23:33:13.462Z,102774.69
2024-01-29T23:35:40.046Z,102791.06
2024-01-29T23:38:06.873Z,102789.56
2024-01-29T23:40:33.453Z,102790.03
2024-01-29T23:43:00.137Z,102786.72
2024-01-29T23:45:27.052Z,102774.84
2024-01-29T23:47:53.709Z,102786.44
2024-01-29T23:50:20.583Z,102772.28
2024-01-29T23:52:47.184Z,102783.03
2024-01-29T23:55:13.904Z,102777.25
2024-01-29T23:57:40.602Z,102783.19
